Station: Smithton  

  Atmospheric Gas Attenuation - ITU Rec 676-11   ----------------- dB/100km -----------------
Date Time Temp RH % AH g/m3 Dew Point Wind Direction Speed kph Gust kph Barometer mB Rainfall Since 9am 24GHz 47GHz 76GHz 122GHz 134GHz 241GHz
11/05 03:40 10.3 95 9.1 9.5 0 0 1033.3 0 20.8 28.6 44.7 117.2 111.8 384.6
11/05 03:30 10.1 94 8.89 9.2 2 7 1033.3 0 20.4 28.3 43.9 115.0 109.1 375.1
11/05 03:20 12 95 10.13 11.2 7 7 1033.3 0 22.9 29.8 48.2 126.5 124.0 427.5
11/05 03:10 12.1 95 10.19 11.3 7 9 1033.3 0 23.1 29.9 48.4 127.1 124.7 430.0
11/05 03:00 12.3 95 10.32 11.5 11 13 1033.4 0 23.3 30.1 48.9 128.3 126.3 435.5
11/05 02:50 12.6 96 10.62 12 11 13 1033.4 0 24.0 30.5 50.0 131.3 130.1 449.0
11/05 02:40 12.6 96 10.62 12 11 11 1033.5 0 24.0 30.5 50.0 131.4 130.1 449.1
11/05 02:30 12.5 96 10.56 11.9 9 11 1033.6 0 23.8 30.4 49.8 130.8 129.4 446.6
11/05 02:20 12.4 96 10.49 11.8 9 9 1033.6 0 23.7 30.4 49.6 130.2 128.6 443.6
11/05 02:10 12.4 96 10.49 11.8 7 9 1033.6 0 23.7 30.4 49.6 130.2 128.6 443.6
11/05 02:00 12.3 96 10.43 11.7 9 9 1033.6 0 23.6 30.3 49.4 129.6 127.9 441.1
11/05 01:50 12.2 96 10.36 11.6 9 9 1033.7 0 23.4 30.2 49.1 129.0 127.0 438.2
11/05 01:40 11.9 96 10.17 11.3 9 9 1033.7 0 23.0 30.0 48.5 127.2 124.8 430.2
11/05 01:30 11.6 95 9.88 10.8 11 11 1033.6 0 22.4 29.5 47.4 124.3 121.0 417.1
11/05 01:20 11.4 95 9.75 10.6 9 11 1033.6 0 22.2 29.4 46.9 123.1 119.5 411.7
11/05 01:10 11.6 95 9.88 10.8 11 13 1033.5 0 22.4 29.5 47.4 124.3 121.0 417.1
11/05 01:00 11.8 95 10 11 11 13 1033.5 0 22.7 29.7 47.8 125.4 122.4 422.1
11/05 00:50 11.9 95 10.06 11.1 11 13 1033.5 0 22.8 29.8 48.0 125.9 123.2 424.6
11/05 00:40 12 96 10.23 11.4 11 11 1033.5 0 23.1 30.0 48.7 127.7 125.5 432.6
11/05 00:30 11.5 95 9.81 10.7 9 13 1033.4 0 22.3 29.4 47.1 123.6 120.2 414.1
11/05 00:20 11.3 95 9.69 10.5 9 11 1033.4 0 22.0 29.3 46.7 122.5 118.7 409.1
11/05 00:10 11.6 95 9.88 10.8 9 11 1033.3 0 22.4 29.5 47.3 124.3 121.0 417.0
11/05 00:00 11.6 95 9.88 10.8 11 11 1033.4 0 22.4 29.5 47.3 124.3 121.0 417.1
10/05 23:50 11.3 95 9.69 10.5 11 11 1033.4 0 22.0 29.3 46.7 122.5 118.7 409.1
10/05 23:40 11.2 94 9.53 10.3 11 11 1033.4 0 21.7 29.1 46.1 120.8 116.6 401.6
10/05 23:30 11.4 94 9.65 10.5 9 11 1033.4 0 21.9 29.2 46.5 121.9 118.0 406.6
10/05 23:20 11.7 94 9.83 10.8 9 11 1033.5 0 22.3 29.4 47.1 123.5 120.1 414.0
10/05 23:10 12 94 10.02 11.1 9 11 1033.5 0 22.7 29.7 47.7 125.3 122.4 422.0
10/05 23:00 12.6 94 10.4 11.7 11 13 1033.5 0 23.5 30.1 49.0 128.8 126.9 437.9
10/05 22:50 12.7 95 10.58 11.9 11 11 1033.4 0 23.9 30.4 49.8 130.7 129.4 446.4
10/05 22:40 12.6 95 10.51 11.8 11 13 1033.4 0 23.7 30.3 49.5 130.0 128.5 443.4
10/05 22:30 12.1 96 10.3 11.5 9 13 1033.4 0 23.3 30.1 48.9 128.4 126.3 435.6
10/05 22:20 10.4 94 9.06 9.5 9 9 1033.5 0 20.7 28.5 44.5 116.6 111.1 382.1
10/05 22:10 10.2 94 8.95 9.3 6 7 1033.4 0 20.5 28.4 44.1 115.6 109.8 377.6
10/05 22:00 10.4 94 9.06 9.5 6 7 1033.4 0 20.7 28.5 44.5 116.6 111.1 382.1
10/05 21:50 10.5 94 9.12 9.6 6 6 1033.3 0 20.8 28.6 44.7 117.1 111.8 384.6
10/05 21:40 10.5 93 9.02 9.4 6 6 1033.3 0 20.6 28.4 44.2 115.9 110.3 379.6
10/05 21:30 10.6 94 9.18 9.7 2 7 1033.3 0 21.0 28.6 44.9 117.6 112.5 387.1
10/05 21:20 9.9 93 8.69 8.8 2 6 1033.2 0 20.0 28.0 43.1 113.0 106.5 366.0
10/05 21:10 9.6 93 8.52 8.5 7 7 1033.1 0 19.6 27.8 42.6 111.5 104.5 359.0
10/05 21:00 9.6 92 8.43 8.4 7 7 1033 0 19.4 27.6 42.2 110.4 103.2 354.5
10/05 20:50 9.9 93 8.69 8.8 6 7 1033 0 20.0 28.0 43.1 113.0 106.5 366.0
10/05 20:40 9.7 92 8.48 8.5 6 7 1032.9 0 19.5 27.7 42.3 110.9 103.8 356.5
10/05 20:30 10.7 91 8.94 9.3 9 11 1032.8 0 20.4 28.2 43.8 114.7 108.9 374.5
10/05 20:20 11.6 93 9.67 10.5 11 13 1032.8 0 22.0 29.1 46.4 121.7 117.9 406.3
10/05 20:10 11.4 92 9.44 10.1 9 11 1032.8 0 21.5 28.8 45.5 119.4 115.0 395.9
10/05 20:00 11.5 92 9.5 10.2 11 11 1032.7 0 21.6 28.9 45.7 119.9 115.7 398.3
10/05 19:50 11.8 91 9.58 10.4 11 13 1032.7 0 21.8 28.9 45.9 120.4 116.3 400.7
10/05 19:40 12.1 92 9.87 10.8 11 11 1032.6 0 22.4 29.3 47.0 123.3 120.0 413.6
10/05 19:30 12.2 91 9.82 10.8 13 15 1032.5 0 22.3 29.2 46.7 122.5 119.1 410.6
10/05 19:20 12.2 91 9.82 10.8 11 13 1032.4 0 22.3 29.2 46.7 122.5 119.1 410.5
10/05 19:10 11.9 89 9.43 10.1 11 13 1032.3 0 21.4 28.6 45.2 118.4 114.0 392.7
10/05 19:00 12.5 90 9.9 10.9 11 13 1032.2 0 22.4 29.2 46.8 122.9 119.8 412.9
10/05 18:50 12.8 90 10.08 11.2 11 13 1032.1 0 22.8 29.4 47.4 124.5 121.9 420.2
10/05 18:40 12.8 89 9.97 11 13 13 1031.9 0 22.5 29.2 46.9 123.2 120.3 414.6
10/05 18:30 13.1 88 10.04 11.2 13 15 1031.8 0 22.7 29.2 47.1 123.5 120.8 416.5
10/05 18:20 13.4 88 10.23 11.5 13 13 1031.7 0 23.1 29.5 47.7 125.2 123.0 424.3
10/05 18:10 13.6 87 10.24 11.5 15 15 1031.5 0 23.1 29.4 47.6 125.0 122.8 423.6
10/05 18:00 13.8 87 10.37 11.7 15 19 1031.4 0 23.3 29.6 48.0 126.2 124.3 428.9
10/05 17:50 13.8 85 10.13 11.3 13 15 1031.2 0 22.8 29.1 47.0 123.4 120.9 417.0
10/05 17:40 13.9 85 10.19 11.4 15 17 1031.2 0 23.0 29.2 47.2 123.9 121.6 419.4
10/05 17:30 14 83 10.01 11.2 13 15 1031.1 0 22.6 28.9 46.4 121.7 118.9 410.0
10/05 17:20 14.4 81 10.01 11.2 11 13 1031 0 22.5 28.7 46.1 121.1 118.3 407.8
10/05 17:10 14.8 80 10.13 11.4 13 13 1030.9 0 22.8 28.8 46.4 121.8 119.3 411.6
10/05 17:00 15.3 78 10.19 11.5 13 19 1030.9 0 22.9 28.7 46.3 121.7 119.4 411.8
10/05 16:50 15.7 76 10.17 11.5 15 17 1030.9 0 22.8 28.6 46.0 120.8 118.5 408.8
10/05 16:40 16.1 75 10.28 11.7 11 13 1030.9 0 23.0 28.6 46.3 121.4 119.4 411.9
10/05 16:30 16.3 74 10.27 11.7 13 19 1030.8 0 23.0 28.6 46.1 121.0 118.9 410.4
10/05 16:20 16.5 74 10.39 11.9 11 13 1030.8 0 23.2 28.7 46.5 122.0 120.2 415.1
10/05 16:10 16.8 73 10.44 11.9 13 15 1030.8 0 23.3 28.7 46.5 122.1 120.5 415.9
10/05 16:00 16.9 71 10.21 11.6 17 20 1030.8 0 22.8 28.3 45.5 119.4 117.2 404.4
10/05 15:50 17.3 72 10.61 12.2 13 15 1030.8 0 23.7 28.8 46.9 123.2 122.0 421.3
10/05 15:40 17.2 70 10.25 11.7 15 19 1030.6 0 22.9 28.2 45.5 119.4 117.2 404.7
10/05 15:30 17.3 70 10.31 11.8 19 22 1030.5 0 23.0 28.3 45.7 119.9 117.9 407.0
10/05 15:20 17.6 69 10.35 11.8 20 22 1030.5 0 23.1 28.3 45.7 119.9 118.0 407.3
10/05 15:10 17.7 69 10.41 11.9 15 17 1030.4 0 23.2 28.3 45.8 120.4 118.6 409.6
10/05 15:00 17.6 69 10.35 11.9 19 22 1030.3 0 23.1 28.2 45.6 119.8 118.0 407.2
10/05 14:50 17.6 68 10.2 11.6 19 22 1030.3 0 22.8 28.0 45.0 118.2 115.9 400.2
10/05 14:40 17.7 68 10.26 11.7 22 24 1030.2 0 22.9 28.1 45.2 118.7 116.6 402.4
10/05 14:30 17.8 67 10.17 11.6 17 26 1030.2 0 22.7 27.9 44.8 117.6 115.2 397.7
10/05 14:20 17.7 67 10.11 11.5 19 22 1030.3 0 22.6 27.8 44.6 117.1 114.6 395.5
10/05 14:10 18.1 67 10.35 11.9 17 22 1030.3 0 23.1 28.1 45.4 119.1 117.2 404.6
10/05 14:00 18 65 9.98 11.3 19 24 1030.3 0 22.3 27.5 43.9 115.2 112.4 387.9
10/05 13:50 18.2 65 10.1 11.5 19 24 1030.2 0 22.5 27.6 44.3 116.2 113.7 392.5
10/05 13:40 17.9 69 10.53 12.1 15 17 1030.2 0 23.5 28.4 46.2 121.3 119.9 414.1
10/05 13:30 17.8 69 10.47 12 17 22 1030.2 0 23.3 28.4 46.0 120.8 119.3 411.8
10/05 13:20 18 67 10.29 11.8 15 19 1030.2 0 22.9 28.0 45.2 118.6 116.5 402.3
10/05 13:10 18.3 61 9.54 10.7 19 20 1030.2 0 21.3 26.7 42.0 110.1 106.2 366.3
10/05 13:00 18.1 64 9.89 11.2 17 20 1030.2 0 22.1 27.3 43.5 114.1 111.1 383.2
10/05 12:50 17.9 65 9.92 11.2 17 20 1030.3 0 22.2 27.4 43.7 114.7 111.8 385.6
10/05 12:40 18.2 65 10.1 11.5 15 17 1030.3 0 22.5 27.6 44.3 116.2 113.7 392.5
10/05 12:30 18.2 64 9.95 11.3 15 19 1030.4 0 22.2 27.4 43.7 114.6 111.7 385.6
10/05 12:20 18 64 9.83 11.1 17 17 1030.4 0 22.0 27.3 43.3 113.6 110.4 381.0
10/05 12:10 18.2 63 9.79 11 13 13 1030.5 0 21.9 27.2 43.1 112.9 109.6 378.3
10/05 12:00 18.4 64 10.07 11.5 9 15 1030.6 0 22.5 27.5 44.1 115.7 113.1 390.2
10/05 11:50 18 67 10.29 11.8 9 11 1030.6 0 22.9 28.0 45.2 118.6 116.6 402.4
10/05 11:40 17.6 70 10.5 12.1 6 7 1030.7 0 23.4 28.5 46.3 121.5 120.0 414.4
10/05 11:30 17 71 10.27 11.7 7 9 1030.7 0 23.0 28.3 45.7 119.9 117.8 406.7
10/05 11:20 16.9 74 10.64 12.2 6 7 1030.8 0 23.7 29.0 47.3 124.2 123.0 424.9
10/05 11:10 16.2 75 10.34 11.8 7 9 1030.7 0 23.1 28.7 46.4 121.9 120.0 414.2

Last Refresh: 11-May-2026 03:18:46

Bureau of Meteorology